Terminal Aerodrome Forecast
Issued by NWS

Home | Current Version | Previous Version | Text Only | Print | Product List | Glossary On
Versions: 1 2 3 4 5 6 7 8 9 10 11 12 13
546
FTUS42 KMHX 172358 CCA
TAFISO
TAF COR
KISO 172358Z 1800/1824 36013KT 2SM -SN BKN007
     FM180400 35012KT 3SM -SN SCT007 BKN015
     FM180600 34011KT P6SM SCT020 BKN040
     FM180900 33010KT P6SM SCT100
     FM181700 29009KT P6SM SKC
      AMD LTD TO CLD VIS AND WIND=

USA.gov is the U.S. government's official web portal to all federal, state and local government web resources and services.